createdAt,value
2023-04-15T00:02:24.654Z,6.08
2023-04-15T00:04:53.390Z,5.97
2023-04-15T00:07:21.983Z,5.90
2023-04-15T00:09:55.038Z,5.69
2023-04-15T00:12:23.650Z,5.73
2023-04-15T00:14:52.266Z,5.65
2023-04-15T00:17:21.258Z,5.78
2023-04-15T00:19:49.878Z,5.69
2023-04-15T00:22:18.720Z,5.56
2023-04-15T00:24:47.338Z,5.69
2023-04-15T00:27:17.265Z,5.58
2023-04-15T00:29:45.902Z,5.44
2023-04-15T00:32:14.544Z,5.49
2023-04-15T00:34:43.405Z,5.39
2023-04-15T00:37:12.569Z,5.35
2023-04-15T00:39:41.234Z,5.39
2023-04-15T00:42:10.567Z,5.35
2023-04-15T00:44:40.989Z,5.34
2023-04-15T00:47:10.046Z,5.33
2023-04-15T00:49:38.666Z,5.28
2023-04-15T00:52:07.309Z,5.27
2023-04-15T00:54:36.406Z,5.22
2023-04-15T00:57:06.715Z,5.11
2023-04-15T00:59:35.597Z,4.99
2023-04-15T01:02:05.843Z,4.94
2023-04-15T01:04:34.541Z,4.91
2023-04-15T01:07:03.388Z,4.91
2023-04-15T01:09:32.134Z,4.94
2023-04-15T01:12:00.749Z,4.89
2023-04-15T01:14:30.180Z,4.94
2023-04-15T01:16:58.900Z,4.87
2023-04-15T01:19:28.959Z,4.85
2023-04-15T01:21:57.555Z,4.82
2023-04-15T01:24:27.904Z,4.81
2023-04-15T01:26:58.471Z,4.79
2023-04-15T01:29:27.380Z,4.79
2023-04-15T01:31:57.440Z,4.72
2023-04-15T01:34:26.336Z,4.65
2023-04-15T01:36:54.923Z,4.58
2023-04-15T01:39:23.569Z,4.66
2023-04-15T01:41:52.271Z,4.66
2023-04-15T01:44:22.683Z,4.62
2023-04-15T01:46:51.311Z,4.64
2023-04-15T01:49:20.063Z,4.60
2023-04-15T01:51:48.750Z,4.61
2023-04-15T01:54:17.356Z,4.57
2023-04-15T01:56:45.921Z,4.58
2023-04-15T01:59:14.631Z,4.62
2023-04-15T02:01:45.181Z,4.58
2023-04-15T02:04:16.619Z,4.65
2023-04-15T02:06:45.251Z,4.57
2023-04-15T02:09:14.036Z,4.57
2023-04-15T02:11:42.654Z,4.44
2023-04-15T02:14:11.253Z,4.38
2023-04-15T02:16:39.947Z,4.34
2023-04-15T02:19:10.024Z,4.34
2023-04-15T02:21:38.619Z,4.32
2023-04-15T02:24:07.754Z,4.37
2023-04-15T02:26:36.378Z,4.27
2023-04-15T02:29:05.120Z,4.37
2023-04-15T02:31:36.956Z,4.31
2023-04-15T02:34:05.833Z,4.39
2023-04-15T02:36:35.751Z,4.28
2023-04-15T02:39:04.497Z,4.27
2023-04-15T02:41:33.205Z,4.25
2023-04-15T02:44:03.023Z,4.23
2023-04-15T02:46:32.248Z,4.23
2023-04-15T02:49:01.234Z,4.16
2023-04-15T02:51:31.983Z,4.15
2023-04-15T02:54:01.967Z,4.09
2023-04-15T02:56:31.294Z,4.07
2023-04-15T02:59:00.050Z,4.05
2023-04-15T03:01:28.834Z,4.03
2023-04-15T03:03:57.500Z,4.01
2023-04-15T03:06:26.274Z,4.02
2023-04-15T03:08:54.859Z,4.03
2023-04-15T03:11:24.821Z,3.93
2023-04-15T03:13:53.372Z,3.91
2023-04-15T03:16:22.329Z,3.96
2023-04-15T03:18:51.061Z,3.91
2023-04-15T03:21:20.001Z,3.92
2023-04-15T03:23:49.830Z,4.01
2023-04-15T03:26:29.862Z,3.81
2023-04-15T03:28:59.084Z,3.73
2023-04-15T03:31:27.935Z,3.60
2023-04-15T03:33:56.649Z,3.72
2023-04-15T03:36:25.256Z,3.70
2023-04-15T03:38:53.987Z,3.67
2023-04-15T03:41:22.581Z,3.75
2023-04-15T03:43:52.734Z,3.73
2023-04-15T03:46:21.523Z,3.47
2023-04-15T03:48:50.180Z,3.31
2023-04-15T03:51:18.967Z,3.38
2023-04-15T03:53:47.543Z,3.30
2023-04-15T03:56:16.148Z,3.34
2023-04-15T03:58:44.853Z,3.34
2023-04-15T04:01:14.961Z,3.39
2023-04-15T04:03:43.753Z,3.46
2023-04-15T04:06:12.734Z,3.43
2023-04-15T04:08:41.433Z,3.42
2023-04-15T04:11:10.215Z,3.48
2023-04-15T04:13:38.814Z,3.47
2023-04-15T04:16:08.275Z,3.44
2023-04-15T04:18:38.407Z,3.40
2023-04-15T04:21:07.456Z,3.34
2023-04-15T04:23:36.029Z,3.31
2023-04-15T04:26:04.658Z,3.36
2023-04-15T04:28:33.366Z,3.33
2023-04-15T04:31:02.361Z,3.42
2023-04-15T04:33:31.028Z,3.35
2023-04-15T04:36:00.997Z,3.34
2023-04-15T04:38:29.520Z,3.23
2023-04-15T04:40:58.183Z,3.33
2023-04-15T04:43:27.127Z,3.17
2023-04-15T04:45:55.828Z,3.11
2023-04-15T04:48:24.534Z,3.09
2023-04-15T04:50:53.321Z,3.09
2023-04-15T04:53:23.404Z,3.07
2023-04-15T04:55:52.222Z,3.13
2023-04-15T04:58:21.388Z,3.16
2023-04-15T05:00:50.004Z,3.13
2023-04-15T05:03:19.101Z,3.14
2023-04-15T05:05:49.318Z,3.02
2023-04-15T05:08:17.982Z,3.00
2023-04-15T05:10:47.941Z,3.11
2023-04-15T05:13:16.525Z,3.11
2023-04-15T05:15:45.430Z,3.11
2023-04-15T05:18:14.061Z,3.01
2023-04-15T05:20:42.664Z,3.02
2023-04-15T05:23:11.250Z,3.07
2023-04-15T05:25:39.872Z,3.01
2023-04-15T05:28:09.829Z,3.05
2023-04-15T05:30:38.423Z,3.13
2023-04-15T05:33:07.179Z,3.19
2023-04-15T05:35:35.842Z,3.16
2023-04-15T05:38:04.433Z,3.11
2023-04-15T05:40:33.062Z,3.05
2023-04-15T05:43:01.782Z,3.13
2023-04-15T05:45:32.499Z,3.24
2023-04-15T05:48:01.213Z,3.21
2023-04-15T05:50:29.958Z,3.23
2023-04-15T05:52:58.679Z,3.27
2023-04-15T05:55:27.433Z,3.33
2023-04-15T05:57:56.039Z,3.39
2023-04-15T06:00:24.590Z,3.52
2023-04-15T06:02:54.801Z,3.63
2023-04-15T06:05:24.073Z,3.76
2023-04-15T06:07:52.760Z,3.82
2023-04-15T06:10:21.422Z,3.68
2023-04-15T06:12:50.086Z,3.71
2023-04-15T06:15:18.843Z,3.75
2023-04-15T06:17:47.543Z,3.89
2023-04-15T06:20:17.739Z,3.98
2023-04-15T06:22:46.426Z,4.02
2023-04-15T06:25:15.081Z,3.90
2023-04-15T06:27:43.910Z,3.98
2023-04-15T06:30:14.780Z,3.94
2023-04-15T06:32:43.646Z,4.01
2023-04-15T06:35:13.783Z,4.17
2023-04-15T06:37:43.730Z,4.30
2023-04-15T06:40:13.319Z,4.53
2023-04-15T06:42:41.914Z,4.69
2023-04-15T06:45:11.475Z,4.80
2023-04-15T06:47:40.821Z,4.83
2023-04-15T06:50:11.421Z,4.93
2023-04-15T06:52:40.025Z,5.05
2023-04-15T06:55:10.770Z,5.06
2023-04-15T06:57:39.526Z,5.21
2023-04-15T07:00:11.125Z,5.31
2023-04-15T07:02:39.773Z,5.38
2023-04-15T07:05:08.802Z,5.35
2023-04-15T07:07:38.271Z,5.38
2023-04-15T07:10:08.259Z,5.37
2023-04-15T07:12:38.470Z,5.34
2023-04-15T07:15:08.245Z,5.40
2023-04-15T07:17:37.094Z,5.43
2023-04-15T07:20:06.430Z,5.51
2023-04-15T07:22:35.076Z,5.55
2023-04-15T07:25:03.737Z,5.45
2023-04-15T07:27:32.478Z,5.53
2023-04-15T07:30:02.483Z,5.57
2023-04-15T07:32:31.114Z,5.61
2023-04-15T07:35:00.175Z,5.83
2023-04-15T07:37:29.618Z,5.86
2023-04-15T07:39:58.397Z,6.02
2023-04-15T07:42:27.043Z,6.39
2023-04-15T07:44:55.831Z,6.57
2023-04-15T07:47:26.333Z,6.76
2023-04-15T07:49:54.947Z,6.97
2023-04-15T07:52:23.542Z,7.15
2023-04-15T07:54:52.173Z,7.55
2023-04-15T07:57:21.063Z,7.74
2023-04-15T07:59:49.712Z,8.06
2023-04-15T08:02:18.410Z,8.42
2023-04-15T08:04:48.728Z,8.56
2023-04-15T08:07:18.082Z,8.70
2023-04-15T08:09:46.953Z,8.88
2023-04-15T08:12:15.932Z,9.10
2023-04-15T08:14:44.680Z,9.30
2023-04-15T08:17:13.375Z,9.25
2023-04-15T08:19:42.410Z,9.49
2023-04-15T08:22:18.031Z,9.74
2023-04-15T08:24:47.342Z,9.92
2023-04-15T08:27:15.970Z,10.23
2023-04-15T08:29:45.567Z,10.18
2023-04-15T08:32:14.893Z,10.55
2023-04-15T08:34:43.535Z,10.65
2023-04-15T08:37:13.627Z,10.57
2023-04-15T08:39:42.282Z,10.41
2023-04-15T08:42:13.650Z,10.58
2023-04-15T08:44:42.550Z,10.83
2023-04-15T08:47:14.188Z,11.07
2023-04-15T08:49:44.109Z,11.01
2023-04-15T08:52:14.376Z,11.20
2023-04-15T08:54:43.125Z,11.34
2023-04-15T08:57:12.001Z,11.23
2023-04-15T08:59:40.800Z,11.45
2023-04-15T09:02:09.576Z,11.64
2023-04-15T09:04:38.220Z,11.86
2023-04-15T09:07:06.852Z,12.02
2023-04-15T09:09:37.502Z,12.05
2023-04-15T09:12:06.106Z,12.17
2023-04-15T09:14:35.082Z,12.39
2023-04-15T09:17:04.951Z,12.48
2023-04-15T09:19:34.665Z,12.59
2023-04-15T09:22:03.847Z,12.72
2023-04-15T09:24:39.719Z,12.64
2023-04-15T09:27:08.852Z,12.78
2023-04-15T09:29:38.386Z,12.97
2023-04-15T09:32:14.732Z,12.93
2023-04-15T09:34:44.533Z,13.08
2023-04-15T09:37:24.497Z,13.23
2023-04-15T09:39:58.961Z,13.42
2023-04-15T09:42:29.116Z,13.51
2023-04-15T09:44:58.161Z,13.60
2023-04-15T09:47:30.460Z,13.74
2023-04-15T09:49:59.813Z,13.95
2023-04-15T09:52:29.562Z,14.04
2023-04-15T09:55:00.868Z,13.90
2023-04-15T09:57:35.609Z,13.85
2023-04-15T10:00:05.173Z,13.69
2023-04-15T10:02:37.185Z,13.75
2023-04-15T10:05:07.222Z,13.95
2023-04-15T10:07:36.147Z,13.98
2023-04-15T10:10:07.544Z,13.84
2023-04-15T10:12:38.528Z,13.71
2023-04-15T10:15:08.115Z,13.38
2023-04-15T10:17:37.289Z,13.08
2023-04-15T10:20:07.637Z,13.09
2023-04-15T10:22:36.685Z,13.19
2023-04-15T10:25:07.793Z,13.31
2023-04-15T10:27:37.250Z,13.67
2023-04-15T10:30:07.679Z,14.06
2023-04-15T10:32:36.665Z,14.26
2023-04-15T10:35:06.685Z,14.45
2023-04-15T10:37:37.388Z,14.37
2023-04-15T10:40:27.219Z,14.41
2023-04-15T10:42:56.976Z,14.24
2023-04-15T10:45:28.202Z,14.37
2023-04-15T10:47:58.168Z,14.58
2023-04-15T10:50:28.230Z,14.67
2023-04-15T10:52:57.805Z,14.57
2023-04-15T10:55:28.325Z,14.84
2023-04-15T10:58:00.865Z,15.01
2023-04-15T11:00:31.431Z,15.00
2023-04-15T11:03:01.158Z,14.79
2023-04-15T11:05:51.523Z,14.62
2023-04-15T11:08:20.973Z,14.39
2023-04-15T11:10:57.727Z,14.30
2023-04-15T11:13:28.837Z,14.39
2023-04-15T11:16:02.096Z,14.20
2023-04-15T11:18:32.864Z,14.05
2023-04-15T11:21:03.771Z,14.00
2023-04-15T11:23:34.494Z,14.10
2023-04-15T11:26:09.193Z,14.25
2023-04-15T11:28:39.196Z,14.25
2023-04-15T11:31:10.749Z,14.12
2023-04-15T11:33:45.791Z,14.10
2023-04-15T11:36:14.802Z,14.16
2023-04-15T11:38:44.277Z,14.16
2023-04-15T11:41:14.317Z,14.15
2023-04-15T11:43:43.334Z,14.11
2023-04-15T11:46:11.985Z,14.30
2023-04-15T11:48:45.232Z,14.31
2023-04-15T11:51:15.345Z,14.37
2023-04-15T11:53:46.330Z,14.20
2023-04-15T11:56:21.272Z,14.15
2023-04-15T11:58:53.690Z,13.96
2023-04-15T12:01:23.141Z,13.87
2023-04-15T12:03:52.470Z,13.67
2023-04-15T12:06:22.951Z,13.34
2023-04-15T12:09:15.681Z,12.90
2023-04-15T12:11:47.150Z,12.66
2023-04-15T12:14:23.308Z,12.53
2023-04-15T12:16:53.964Z,12.53
2023-04-15T12:19:27.631Z,12.45
2023-04-15T12:22:00.645Z,12.59
2023-04-15T12:24:32.740Z,12.79
2023-04-15T12:27:06.068Z,12.89
2023-04-15T12:29:36.735Z,12.86
2023-04-15T12:32:07.666Z,12.98
2023-04-15T12:34:37.721Z,12.86
2023-04-15T12:37:07.633Z,12.84
2023-04-15T12:39:37.233Z,12.49
2023-04-15T12:42:07.716Z,12.00
2023-04-15T12:44:36.714Z,11.57
2023-04-15T12:47:05.705Z,11.14
2023-04-15T12:49:35.579Z,10.81
2023-04-15T12:52:04.913Z,10.78
2023-04-15T12:54:34.324Z,10.66
2023-04-15T12:57:06.414Z,10.53
2023-04-15T12:59:37.482Z,10.36
2023-04-15T13:02:06.329Z,10.39
2023-04-15T13:04:35.119Z,10.25
2023-04-15T13:07:03.923Z,10.18
2023-04-15T13:09:33.414Z,10.18
2023-04-15T13:12:03.054Z,10.13
2023-04-15T13:14:32.002Z,10.06
2023-04-15T13:17:04.361Z,10.12
2023-04-15T13:19:33.433Z,10.09
2023-04-15T13:22:02.444Z,10.08
2023-04-15T13:24:31.963Z,10.22
2023-04-15T13:27:00.953Z,10.18
2023-04-15T13:29:29.562Z,10.26
2023-04-15T13:31:58.211Z,10.32
2023-04-15T13:34:28.199Z,10.41
2023-04-15T13:36:56.847Z,10.49
2023-04-15T13:39:25.561Z,10.59
2023-04-15T13:41:54.250Z,10.69
2023-04-15T13:44:23.863Z,10.69
2023-04-15T13:46:53.779Z,10.72
2023-04-15T13:49:22.497Z,10.87
2023-04-15T13:51:52.769Z,10.93
2023-04-15T13:54:21.551Z,11.01
2023-04-15T13:56:50.416Z,10.95
2023-04-15T13:59:19.165Z,11.08
2023-04-15T14:01:47.847Z,10.91
2023-04-15T14:04:16.675Z,10.98
2023-04-15T14:06:45.748Z,10.97
2023-04-15T14:09:15.774Z,10.96
2023-04-15T14:11:44.563Z,11.00
2023-04-15T14:14:15.236Z,10.99
2023-04-15T14:16:44.985Z,11.06
2023-04-15T14:19:13.614Z,11.06
2023-04-15T14:21:42.265Z,11.09
2023-04-15T14:24:11.006Z,11.14
2023-04-15T14:26:41.102Z,11.09
2023-04-15T14:29:10.392Z,11.18
2023-04-15T14:31:39.117Z,11.22
2023-04-15T14:34:10.025Z,11.18
2023-04-15T14:36:39.797Z,11.19
2023-04-15T14:39:09.596Z,11.32
2023-04-15T14:41:38.650Z,11.29
2023-04-15T14:44:11.484Z,11.33
2023-04-15T14:46:40.681Z,11.32
2023-04-15T14:49:09.483Z,11.33
2023-04-15T14:51:39.217Z,11.26
2023-04-15T14:54:09.390Z,11.27
2023-04-15T14:56:37.994Z,11.26
2023-04-15T14:59:08.156Z,11.29
2023-04-15T15:01:36.920Z,11.18
2023-04-15T15:04:05.742Z,11.04
2023-04-15T15:06:34.526Z,11.04
2023-04-15T15:09:03.558Z,11.08
2023-04-15T15:11:32.638Z,11.07
2023-04-15T15:14:01.278Z,10.91
2023-04-15T15:16:31.612Z,10.90
2023-04-15T15:19:00.301Z,10.88
2023-04-15T15:21:28.955Z,10.85
2023-04-15T15:23:57.789Z,10.81
2023-04-15T15:26:28.037Z,10.72
2023-04-15T15:28:57.355Z,10.68
2023-04-15T15:31:26.017Z,10.68
2023-04-15T15:33:55.986Z,10.70
2023-04-15T15:36:24.641Z,10.53
2023-04-15T15:38:53.256Z,10.50
2023-04-15T15:41:22.223Z,10.41
2023-04-15T15:43:50.946Z,10.38
2023-04-15T15:46:19.684Z,10.35
2023-04-15T15:48:48.678Z,10.33
2023-04-15T15:51:18.644Z,10.31
2023-04-15T15:53:47.268Z,10.32
2023-04-15T15:56:15.962Z,10.30
2023-04-15T15:58:45.052Z,10.28
2023-04-15T16:01:13.856Z,10.32
2023-04-15T16:03:42.922Z,10.25
2023-04-15T16:06:11.658Z,10.24
2023-04-15T16:08:41.618Z,10.21
2023-04-15T16:11:10.335Z,10.11
2023-04-15T16:13:38.976Z,10.15
2023-04-15T16:16:08.125Z,10.06
2023-04-15T16:18:36.764Z,10.05
2023-04-15T16:21:06.312Z,10.04
2023-04-15T16:23:35.080Z,10.04
2023-04-15T16:26:05.164Z,9.97
2023-04-15T16:28:33.853Z,9.89
2023-04-15T16:31:02.857Z,9.84
2023-04-15T16:33:31.888Z,9.76
2023-04-15T16:36:01.132Z,9.73
2023-04-15T16:38:30.516Z,9.73
2023-04-15T16:41:01.172Z,9.60
2023-04-15T16:43:31.642Z,9.68
2023-04-15T16:46:02.276Z,9.63
2023-04-15T16:48:31.275Z,9.61
2023-04-15T16:51:00.717Z,9.58
2023-04-15T16:53:30.251Z,9.50
2023-04-15T16:55:59.292Z,9.53
2023-04-15T16:58:28.936Z,9.46
2023-04-15T17:00:59.831Z,9.39
2023-04-15T17:03:29.261Z,9.35
2023-04-15T17:05:58.491Z,9.35
2023-04-15T17:08:27.652Z,9.30
2023-04-15T17:10:56.694Z,9.23
2023-04-15T17:13:27.098Z,9.22
2023-04-15T17:15:56.163Z,9.03
2023-04-15T17:18:26.675Z,9.08
2023-04-15T17:20:56.440Z,9.05
2023-04-15T17:23:26.144Z,8.99
2023-04-15T17:25:55.311Z,8.93
2023-04-15T17:28:24.009Z,8.91
2023-04-15T17:30:52.733Z,8.88
2023-04-15T17:33:56.410Z,8.77
2023-04-15T17:36:11.575Z,8.81
2023-04-15T17:38:40.190Z,8.66
2023-04-15T17:41:08.818Z,8.62
2023-04-15T17:43:37.447Z,8.66
2023-04-15T17:46:07.676Z,8.54
2023-04-15T17:48:36.295Z,8.57
2023-04-15T17:51:04.876Z,8.61
2023-04-15T17:53:34.901Z,8.59
2023-04-15T17:56:03.573Z,8.61
2023-04-15T17:58:32.367Z,8.58
2023-04-15T18:01:01.019Z,8.57
2023-04-15T18:03:29.872Z,8.59
2023-04-15T18:05:59.470Z,8.55
2023-04-15T18:08:28.464Z,8.54
2023-04-15T18:10:58.496Z,8.51
2023-04-15T18:13:27.139Z,8.48
2023-04-15T18:15:56.516Z,8.51
2023-04-15T18:18:25.170Z,8.45
2023-04-15T18:20:53.738Z,8.43
2023-04-15T18:23:22.452Z,8.42
2023-04-15T18:25:51.100Z,8.42
2023-04-15T18:28:22.559Z,8.36
2023-04-15T18:30:51.290Z,8.36
2023-04-15T18:33:20.924Z,8.33
2023-04-15T18:35:50.096Z,8.29
2023-04-15T18:38:18.885Z,8.24
2023-04-15T18:40:48.089Z,8.30
2023-04-15T18:43:16.856Z,8.26
2023-04-15T18:45:47.034Z,8.21
2023-04-15T18:48:15.968Z,8.24
2023-04-15T18:50:44.647Z,8.24
2023-04-15T18:53:13.278Z,8.25
2023-04-15T18:55:42.015Z,8.19
2023-04-15T18:58:10.909Z,8.19
2023-04-15T19:00:41.741Z,8.15
2023-04-15T19:03:12.245Z,8.06
2023-04-15T19:05:42.166Z,8.06
2023-04-15T19:08:11.651Z,8.03
2023-04-15T19:10:40.444Z,8.08
2023-04-15T19:13:09.196Z,8.12
2023-04-15T19:15:37.836Z,8.15
2023-04-15T19:18:10.478Z,8.20
2023-04-15T19:20:40.980Z,8.26
2023-04-15T19:23:09.636Z,8.21
2023-04-15T19:25:39.189Z,8.20
2023-04-15T19:28:08.098Z,8.19
2023-04-15T19:30:37.010Z,8.08
2023-04-15T19:33:06.457Z,8.14
2023-04-15T19:35:36.072Z,8.15
2023-04-15T19:38:07.983Z,8.16
2023-04-15T19:40:36.638Z,8.11
2023-04-15T19:43:05.324Z,7.96
2023-04-15T19:45:35.299Z,7.96
2023-04-15T19:48:04.070Z,7.99
2023-04-15T19:50:33.088Z,7.98
2023-04-15T19:53:01.704Z,7.97
2023-04-15T19:55:31.700Z,7.92
2023-04-15T19:58:00.653Z,7.89
2023-04-15T20:00:29.335Z,7.88
2023-04-15T20:02:58.114Z,7.91
2023-04-15T20:05:26.892Z,7.99
2023-04-15T20:07:55.882Z,8.01
2023-04-15T20:10:25.557Z,8.02
2023-04-15T20:12:55.560Z,7.95
2023-04-15T20:15:24.411Z,7.87
2023-04-15T20:17:53.132Z,7.84
2023-04-15T20:20:22.134Z,7.84
2023-04-15T20:22:52.637Z,7.77
2023-04-15T20:25:21.367Z,7.75
2023-04-15T20:27:50.406Z,7.75
2023-04-15T20:30:23.153Z,7.76
2023-04-15T20:32:51.990Z,7.80
2023-04-15T20:35:20.828Z,7.84
2023-04-15T20:37:50.030Z,7.87
2023-04-15T20:40:18.700Z,7.88
2023-04-15T20:42:47.328Z,7.86
2023-04-15T20:45:16.100Z,7.82
2023-04-15T20:47:46.285Z,7.84
2023-04-15T20:50:15.019Z,7.88
2023-04-15T20:52:43.738Z,7.88
2023-04-15T20:55:12.450Z,7.86
2023-04-15T20:57:41.179Z,7.85
2023-04-15T21:00:11.110Z,7.83
2023-04-15T21:02:39.860Z,7.75
2023-04-15T21:05:10.521Z,7.77
2023-04-15T21:07:39.125Z,7.81
2023-04-15T21:10:08.539Z,7.83
2023-04-15T21:12:37.735Z,7.84
2023-04-15T21:15:07.182Z,7.81
2023-04-15T21:17:36.232Z,7.78
2023-04-15T21:20:05.482Z,7.76
2023-04-15T21:22:35.507Z,7.80
2023-04-15T21:25:04.320Z,7.74
2023-04-15T21:27:33.118Z,7.78
2023-04-15T21:30:01.741Z,7.81
2023-04-15T21:32:30.711Z,7.83
2023-04-15T21:34:59.747Z,7.83
2023-04-15T21:37:28.351Z,7.78
2023-04-15T21:39:58.349Z,7.82
2023-04-15T21:42:27.290Z,7.84
2023-04-15T21:44:56.015Z,7.80
2023-04-15T21:47:24.714Z,7.80
2023-04-15T21:49:53.439Z,7.84
2023-04-15T21:52:22.032Z,7.84
2023-04-15T21:54:50.685Z,7.80
2023-04-15T21:57:20.612Z,7.77
2023-04-15T21:59:49.301Z,7.80
2023-04-15T22:02:18.015Z,7.81
2023-04-15T22:04:46.705Z,7.73
2023-04-15T22:07:15.519Z,7.73
2023-04-15T22:09:44.226Z,7.71
2023-04-15T22:12:12.861Z,7.73
2023-04-15T22:14:42.828Z,7.70
2023-04-15T22:17:11.531Z,7.71
2023-04-15T22:19:41.090Z,7.71
2023-04-15T22:22:09.768Z,7.74
2023-04-15T22:24:40.043Z,7.75
2023-04-15T22:27:09.414Z,7.76
2023-04-15T22:29:38.042Z,7.81
2023-04-15T22:32:08.187Z,7.81
2023-04-15T22:34:36.805Z,7.82
2023-04-15T22:37:05.532Z,7.80
2023-04-15T22:39:34.237Z,7.75
2023-04-15T22:42:03.192Z,7.65
2023-04-15T22:44:31.830Z,7.67
2023-04-15T22:47:00.551Z,7.70
2023-04-15T22:49:30.510Z,7.69
2023-04-15T22:51:59.183Z,7.67
2023-04-15T22:54:27.801Z,7.69
2023-04-15T22:56:56.423Z,7.72
2023-04-15T22:59:25.266Z,7.68
2023-04-15T23:01:54.306Z,7.62
2023-04-15T23:04:26.948Z,7.62
2023-04-15T23:06:57.901Z,7.69
2023-04-15T23:09:27.217Z,7.68
2023-04-15T23:11:56.579Z,7.68
2023-04-15T23:14:26.169Z,7.71
2023-04-15T23:16:54.998Z,7.68
2023-04-15T23:19:23.723Z,7.60
2023-04-15T23:21:52.363Z,7.59
2023-04-15T23:24:22.282Z,7.63
2023-04-15T23:26:52.863Z,7.65
2023-04-15T23:29:21.448Z,7.67
2023-04-15T23:31:50.069Z,7.63
2023-04-15T23:34:19.012Z,7.64
2023-04-15T23:36:47.757Z,7.65
2023-04-15T23:39:16.420Z,7.65
2023-04-15T23:41:46.416Z,7.65
2023-04-15T23:44:14.965Z,7.68
2023-04-15T23:46:43.639Z,7.66
2023-04-15T23:49:12.380Z,7.67
2023-04-15T23:51:41.058Z,7.65
2023-04-15T23:54:09.713Z,7.66
2023-04-15T23:56:38.276Z,7.67
2023-04-15T23:59:08.494Z,7.66
